createdAt,value
2023-02-14T00:01:28.467Z,53.97
2023-02-14T00:04:00.696Z,47.17
2023-02-14T00:06:29.888Z,53.70
2023-02-14T00:08:58.755Z,66.30
2023-02-14T00:11:26.530Z,44.33
2023-02-14T00:14:13.113Z,57.65
2023-02-14T00:16:40.717Z,56.13
2023-02-14T00:19:11.940Z,55.90
2023-02-14T00:21:40.338Z,52.30
2023-02-14T00:24:13.434Z,61.53
2023-02-14T00:26:41.991Z,50.55
2023-02-14T00:29:12.130Z,54.10
2023-02-14T00:31:41.404Z,44.33
2023-02-14T00:34:10.210Z,54.80
2023-02-14T00:36:38.755Z,52.42
2023-02-14T00:39:09.457Z,53.45
2023-02-14T00:41:38.753Z,54.80
2023-02-14T00:44:07.744Z,49.22
2023-02-14T00:46:37.153Z,54.25
2023-02-14T00:49:05.012Z,55.97
2023-02-14T00:51:33.157Z,58.22
2023-02-14T00:54:03.644Z,52.40
2023-02-14T00:56:32.960Z,54.08
2023-02-14T00:59:00.706Z,55.40
2023-02-14T01:01:29.170Z,54.55
2023-02-14T01:03:56.904Z,57.50
2023-02-14T01:06:25.301Z,61.22
2023-02-14T01:08:52.969Z,61.17
2023-02-14T01:11:22.670Z,44.38
2023-02-14T01:13:52.681Z,60.72
2023-02-14T01:16:23.473Z,55.60
2023-02-14T01:18:52.146Z,55.58
2023-02-14T01:21:29.098Z,58.45
2023-02-14T01:23:59.518Z,59.55
2023-02-14T01:26:28.923Z,60.88
2023-02-14T01:28:56.908Z,62.55
2023-02-14T01:31:30.938Z,69.32
2023-02-14T01:33:59.606Z,61.25
2023-02-14T01:36:33.180Z,74.50
2023-02-14T01:39:04.647Z,63.63
2023-02-14T01:41:34.692Z,71.13
2023-02-14T01:44:04.686Z,50.30
2023-02-14T01:46:35.415Z,60.53
2023-02-14T01:49:22.942Z,66.80
2023-02-14T01:51:57.151Z,58.15
2023-02-14T01:54:27.723Z,54.92
2023-02-14T01:57:01.397Z,64.18
2023-02-14T01:59:37.103Z,49.03
2023-02-14T02:02:05.548Z,48.95
2023-02-14T02:04:38.068Z,50.38
2023-02-14T02:07:08.969Z,57.10
2023-02-14T02:09:44.129Z,57.65
2023-02-14T02:12:13.257Z,55.03
2023-02-14T02:14:42.983Z,66.93
2023-02-14T02:17:49.313Z,68.28
2023-02-14T02:20:32.676Z,64.95
2023-02-14T02:23:46.358Z,68.88
2023-02-14T02:26:23.422Z,60.90
2023-02-14T02:29:18.609Z,56.35
2023-02-14T02:32:08.718Z,64.72
2023-02-14T02:35:16.222Z,58.40
2023-02-14T02:38:04.131Z,60.28
2023-02-14T02:40:46.704Z,58.97
2023-02-14T02:43:17.906Z,57.92
2023-02-14T02:46:15.149Z,59.08
2023-02-14T02:49:13.409Z,53.97
2023-02-14T02:52:26.999Z,54.10
2023-02-14T02:55:00.672Z,51.03
2023-02-14T03:02:58.370Z,63.38
2023-02-14T03:05:29.076Z,56.60
2023-02-14T03:07:56.852Z,51.92
2023-02-14T03:10:28.520Z,50.67
2023-02-14T03:13:24.382Z,55.33
2023-02-14T03:16:10.875Z,54.47
2023-02-14T03:19:03.405Z,52.17
2023-02-14T03:21:42.232Z,49.80
2023-02-14T03:24:54.571Z,56.00
2023-02-14T03:27:31.682Z,61.08
2023-02-14T03:30:18.622Z,60.20
2023-02-14T03:33:04.107Z,57.25
2023-02-14T03:35:46.808Z,55.17
2023-02-14T03:38:40.606Z,56.85
2023-02-14T03:41:16.008Z,53.67
2023-02-14T03:44:01.015Z,57.13
2023-02-14T03:46:37.913Z,56.13
2023-02-14T03:49:10.690Z,60.60
2023-02-14T03:51:39.782Z,62.80
2023-02-14T03:54:11.517Z,57.22
2023-02-14T03:56:49.608Z,62.88
2023-02-14T03:59:22.395Z,67.93
2023-02-14T04:02:44.643Z,65.97
2023-02-14T04:05:18.898Z,67.90
2023-02-14T04:07:50.210Z,60.30
2023-02-14T04:10:20.513Z,65.57
2023-02-14T04:12:48.807Z,62.30
2023-02-14T04:15:17.773Z,72.80
2023-02-14T04:18:04.989Z,63.45
2023-02-14T04:20:34.191Z,66.82
2023-02-14T04:23:03.434Z,63.65
2023-02-14T04:25:31.729Z,75.95
2023-02-14T04:27:59.784Z,66.10
2023-02-14T04:30:27.488Z,61.85
2023-02-14T04:32:55.454Z,69.93
2023-02-14T04:35:23.042Z,73.22
2023-02-14T04:37:51.052Z,69.05
2023-02-14T04:40:19.955Z,64.13
2023-02-14T04:42:48.059Z,71.35
2023-02-14T04:45:16.338Z,56.88
2023-02-14T04:47:44.010Z,72.60
2023-02-14T04:50:11.678Z,68.93
2023-02-14T04:52:40.557Z,68.53
2023-02-14T04:55:09.879Z,78.93
2023-02-14T04:57:37.527Z,80.28
2023-02-14T05:00:05.847Z,69.55
2023-02-14T05:02:33.685Z,68.00
2023-02-14T05:05:01.401Z,73.45
2023-02-14T05:07:29.920Z,86.72
2023-02-14T05:09:57.685Z,75.85
2023-02-14T05:12:25.879Z,86.93
2023-02-14T05:14:53.670Z,89.03
2023-02-14T05:17:21.301Z,73.60
2023-02-14T05:19:48.885Z,78.22
2023-02-14T05:22:18.407Z,78.22
2023-02-14T05:24:46.654Z,80.38
2023-02-14T05:27:14.594Z,79.55
2023-02-14T05:29:43.147Z,82.15
2023-02-14T05:32:10.667Z,84.90
2023-02-14T05:34:39.037Z,78.85
2023-02-14T05:37:07.082Z,77.28
2023-02-14T05:39:34.556Z,83.00
2023-02-14T05:42:03.274Z,78.35
2023-02-14T05:44:31.387Z,71.55
2023-02-14T05:46:59.384Z,84.20
2023-02-14T05:49:27.567Z,81.68
2023-02-14T05:51:55.519Z,83.20
2023-02-14T05:54:23.551Z,84.10
2023-02-14T05:56:51.228Z,84.57
2023-02-14T05:59:19.181Z,83.22
2023-02-14T06:01:46.771Z,83.35
2023-02-14T06:04:14.933Z,77.65
2023-02-14T06:06:43.353Z,80.40
2023-02-14T06:09:11.338Z,73.15
2023-02-14T06:11:38.798Z,91.22
2023-02-14T06:14:06.436Z,81.50
2023-02-14T06:16:33.956Z,87.15
2023-02-14T06:19:01.944Z,83.00
2023-02-14T06:21:29.706Z,86.55
2023-02-14T06:23:57.616Z,81.30
2023-02-14T06:26:27.953Z,84.35
2023-02-14T06:28:57.825Z,84.38
2023-02-14T06:31:26.234Z,82.93
2023-02-14T06:33:54.549Z,83.05
2023-02-14T06:36:22.527Z,77.45
2023-02-14T06:38:51.007Z,89.40
2023-02-14T06:41:18.786Z,90.47
2023-02-14T06:43:50.607Z,86.40
2023-02-14T06:46:19.138Z,76.20
2023-02-14T06:48:47.263Z,82.93
2023-02-14T06:51:14.860Z,86.68
2023-02-14T06:53:42.720Z,73.63
2023-02-14T06:56:10.242Z,87.13
2023-02-14T06:58:38.716Z,92.00
2023-02-14T07:01:06.874Z,84.22
2023-02-14T07:03:34.664Z,77.43
2023-02-14T07:06:03.201Z,84.85
2023-02-14T07:08:30.978Z,75.28
2023-02-14T07:10:59.131Z,81.20
2023-02-14T07:13:27.586Z,76.68
2023-02-14T07:15:55.658Z,77.38
2023-02-14T07:18:23.291Z,77.65
2023-02-14T07:20:51.759Z,80.55
2023-02-14T07:23:19.359Z,83.28
2023-02-14T07:25:47.305Z,87.60
2023-02-14T07:28:15.130Z,82.50
2023-02-14T07:30:43.114Z,90.13
2023-02-14T07:33:11.360Z,75.57
2023-02-14T07:35:39.062Z,69.53
2023-02-14T07:38:07.787Z,72.78
2023-02-14T07:40:35.832Z,63.63
2023-02-14T07:43:03.892Z,59.60
2023-02-14T07:45:31.897Z,55.45
2023-02-14T07:48:02.114Z,56.28
2023-02-14T07:50:30.474Z,57.15
2023-02-14T07:52:58.026Z,68.35
2023-02-14T07:55:26.041Z,56.70
2023-02-14T07:57:53.744Z,51.88
2023-02-14T08:00:22.192Z,56.75
2023-02-14T08:02:50.168Z,61.42
2023-02-14T08:05:18.593Z,51.92
2023-02-14T08:07:49.131Z,48.22
2023-02-14T08:10:17.276Z,49.58
2023-02-14T08:13:00.349Z,62.47
2023-02-14T08:15:54.071Z,48.75
2023-02-14T08:18:27.194Z,52.42
2023-02-14T08:20:55.177Z,50.10
2023-02-14T08:23:23.172Z,57.15
2023-02-14T08:25:52.543Z,55.72
2023-02-14T08:28:23.304Z,54.10
2023-02-14T08:30:52.312Z,66.25
2023-02-14T08:33:20.964Z,64.65
2023-02-14T08:35:49.090Z,62.47
2023-02-14T08:38:16.625Z,65.90
2023-02-14T08:40:44.723Z,68.13
2023-02-14T08:43:13.728Z,67.65
2023-02-14T08:45:42.330Z,61.08
2023-02-14T08:48:12.636Z,60.00
2023-02-14T08:50:40.858Z,71.97
2023-02-14T08:53:10.674Z,59.53
2023-02-14T08:55:38.541Z,53.75
2023-02-14T08:58:07.218Z,64.65
2023-02-14T09:00:35.775Z,64.85
2023-02-14T09:03:03.903Z,60.92
2023-02-14T09:05:32.848Z,63.95
2023-02-14T09:08:02.413Z,54.47
2023-02-14T09:10:30.095Z,54.90
2023-02-14T09:12:58.019Z,77.40
2023-02-14T09:15:25.924Z,67.15
2023-02-14T09:17:53.615Z,62.22
2023-02-14T09:20:21.822Z,63.10
2023-02-14T09:22:50.256Z,55.85
2023-02-14T09:25:17.981Z,66.28
2023-02-14T09:27:46.018Z,54.97
2023-02-14T09:30:14.146Z,34.33
2023-02-14T09:32:42.164Z,40.53
2023-02-14T09:35:09.868Z,41.38
2023-02-14T09:37:57.314Z,44.83
2023-02-14T09:40:25.793Z,37.85
2023-02-14T09:42:57.442Z,44.25
2023-02-14T09:45:27.644Z,42.25
2023-02-14T09:48:10.168Z,41.92
2023-02-14T09:50:45.761Z,49.58
2023-02-14T09:53:16.371Z,37.25
2023-02-14T09:56:08.880Z,37.22
2023-02-14T09:58:46.086Z,45.35
2023-02-14T10:01:29.742Z,42.78
2023-02-14T10:04:21.558Z,33.95
2023-02-14T10:07:01.226Z,37.15
2023-02-14T10:09:49.625Z,30.92
2023-02-14T10:12:35.456Z,35.75
2023-02-14T10:15:14.293Z,29.15
2023-02-14T10:17:47.374Z,32.42
2023-02-14T10:20:24.493Z,36.20
2023-02-14T10:23:03.324Z,34.58
2023-02-14T10:25:42.738Z,41.13
2023-02-14T10:28:16.502Z,34.55
2023-02-14T10:30:56.408Z,37.67
2023-02-14T10:33:31.154Z,35.17
2023-02-14T10:36:06.236Z,38.50
2023-02-14T10:39:02.286Z,31.77
2023-02-14T10:41:43.819Z,37.33
2023-02-14T10:44:39.258Z,38.53
2023-02-14T10:47:20.338Z,41.35
2023-02-14T10:50:08.712Z,37.38
2023-02-14T10:52:57.384Z,35.67
2023-02-14T10:55:35.027Z,34.17
2023-02-14T10:58:06.562Z,37.88
2023-02-14T11:00:38.624Z,43.70
2023-02-14T11:03:10.938Z,38.60
2023-02-14T11:05:46.174Z,38.63
2023-02-14T11:08:39.819Z,40.03
2023-02-14T11:11:18.351Z,38.93
2023-02-14T11:13:46.419Z,37.63
2023-02-14T11:16:36.151Z,35.80
2023-02-14T11:19:10.306Z,32.90
2023-02-14T11:21:44.017Z,35.65
2023-02-14T11:24:30.677Z,29.52
2023-02-14T11:27:02.769Z,30.98
2023-02-14T11:29:33.354Z,30.95
2023-02-14T11:32:17.103Z,33.00
2023-02-14T11:34:54.370Z,31.60
2023-02-14T11:37:25.987Z,34.40
2023-02-14T11:39:55.561Z,31.08
2023-02-14T11:42:45.510Z,28.58
2023-02-14T11:45:34.705Z,19.02
2023-02-14T11:48:37.217Z,18.88
2023-02-14T11:51:09.958Z,24.05
2023-02-14T11:53:43.625Z,14.80
2023-02-14T11:58:46.062Z,21.05
2023-02-14T12:01:32.502Z,19.48
2023-02-14T12:04:06.162Z,18.05
2023-02-14T12:06:36.854Z,15.35
2023-02-14T12:09:24.196Z,15.90
2023-02-14T12:11:55.639Z,17.15
2023-02-14T12:14:26.546Z,20.73
2023-02-14T12:17:05.691Z,20.95
2023-02-14T12:19:44.788Z,18.83
2023-02-14T12:22:19.261Z,24.63
2023-02-14T12:25:17.085Z,23.58
2023-02-14T12:27:55.287Z,20.63
2023-02-14T12:30:29.112Z,18.33
2023-02-14T12:32:58.071Z,22.02
2023-02-14T12:35:54.031Z,23.20
2023-02-14T12:39:03.331Z,25.15
2023-02-14T12:41:31.042Z,27.30
2023-02-14T12:44:14.620Z,31.13
2023-02-14T12:46:59.006Z,28.98
2023-02-14T12:49:49.605Z,29.85
2023-02-14T12:52:44.103Z,34.67
2023-02-14T12:55:33.763Z,33.20
2023-02-14T12:58:13.586Z,37.50
2023-02-14T13:01:29.222Z,35.17
2023-02-14T13:04:33.466Z,44.45
2023-02-14T13:07:24.810Z,40.17
2023-02-14T13:10:03.715Z,36.78
2023-02-14T13:12:42.254Z,36.70
2023-02-14T13:15:20.482Z,38.83
2023-02-14T13:17:54.945Z,41.67
2023-02-14T13:20:47.446Z,41.53
2023-02-14T13:23:30.584Z,52.45
2023-02-14T13:26:04.277Z,49.50
2023-02-14T13:31:01.986Z,50.83
2023-02-14T13:33:44.650Z,50.28
2023-02-14T13:36:13.787Z,55.80
2023-02-14T13:41:24.604Z,51.72
2023-02-14T13:43:54.085Z,55.58
2023-02-14T13:46:44.568Z,54.85
2023-02-14T13:49:34.660Z,51.05
2023-02-14T13:52:04.556Z,47.70
2023-02-14T13:54:48.461Z,48.00
2023-02-14T14:00:44.709Z,57.72
2023-02-14T14:03:27.722Z,75.50
2023-02-14T14:06:13.676Z,66.75
2023-02-14T14:08:54.473Z,56.60
2023-02-14T14:11:22.062Z,61.95
2023-02-14T14:13:55.394Z,59.72
2023-02-14T14:16:24.412Z,61.58
2023-02-14T14:19:30.535Z,51.88
2023-02-14T14:22:05.332Z,50.30
2023-02-14T14:24:36.702Z,54.13
2023-02-14T14:27:16.089Z,54.03
2023-02-14T14:29:56.648Z,52.97
2023-02-14T14:32:31.709Z,51.17
2023-02-14T14:35:24.828Z,54.78
2023-02-14T14:37:58.495Z,53.00
2023-02-14T14:40:32.733Z,54.47
2023-02-14T14:43:07.199Z,50.78
2023-02-14T14:45:35.352Z,51.42
2023-02-14T14:48:10.962Z,51.42
2023-02-14T14:50:40.061Z,51.45
2023-02-14T14:53:16.147Z,50.97
2023-02-14T14:55:46.754Z,51.28
2023-02-14T14:58:36.672Z,52.47
2023-02-14T15:01:07.228Z,51.80
2023-02-14T15:03:35.848Z,58.13
2023-02-14T15:06:17.438Z,60.05
2023-02-14T15:08:46.858Z,56.22
2023-02-14T15:11:37.523Z,49.95
2023-02-14T15:14:10.240Z,51.97
2023-02-14T15:16:51.783Z,53.22
2023-02-14T15:19:34.273Z,54.58
2023-02-14T15:22:05.977Z,54.90
2023-02-14T15:24:37.887Z,57.28
2023-02-14T15:27:05.953Z,56.70
2023-02-14T15:29:34.539Z,57.97
2023-02-14T15:32:03.750Z,60.08
2023-02-14T15:34:36.510Z,64.00
2023-02-14T15:37:06.774Z,61.90
2023-02-14T15:39:37.931Z,65.25
2023-02-14T15:42:06.315Z,73.85
2023-02-14T15:44:34.401Z,64.13
2023-02-14T15:47:05.936Z,68.25
2023-02-14T15:49:37.173Z,70.45
2023-02-14T15:52:05.995Z,77.05
2023-02-14T15:54:47.477Z,69.80
2023-02-14T15:57:28.105Z,68.80
2023-02-14T15:59:56.134Z,77.75
2023-02-14T16:02:38.053Z,73.90
2023-02-14T16:05:22.157Z,77.18
2023-02-14T16:10:37.286Z,81.85
2023-02-14T16:13:19.161Z,77.15
2023-02-14T16:16:05.440Z,87.45
2023-02-14T16:18:48.925Z,87.18
2023-02-14T16:21:23.940Z,88.13
2023-02-14T16:24:07.019Z,87.15
2023-02-14T16:26:43.932Z,85.40
2023-02-14T16:29:17.451Z,81.57
2023-02-14T16:32:12.107Z,87.22
2023-02-14T16:34:37.691Z,91.50
2023-02-14T16:37:09.130Z,87.97
2023-02-14T16:39:39.522Z,92.15
2023-02-14T16:42:17.215Z,88.10
2023-02-14T16:44:46.544Z,81.68
2023-02-14T16:47:16.249Z,90.80
2023-02-14T16:49:44.563Z,96.72
2023-02-14T16:52:18.498Z,86.28
2023-02-14T16:54:46.892Z,99.03
2023-02-14T16:57:27.635Z,95.78
2023-02-14T16:59:57.306Z,92.72
2023-02-14T17:02:29.087Z,94.07
2023-02-14T17:04:56.804Z,111.93
2023-02-14T17:07:24.668Z,104.20
2023-02-14T17:09:56.412Z,98.75
2023-02-14T17:12:34.138Z,106.00
2023-02-14T17:15:11.809Z,119.30
2023-02-14T17:17:40.224Z,108.07
2023-02-14T17:20:09.258Z,98.28
2023-02-14T17:22:37.518Z,120.22
2023-02-14T17:25:06.613Z,106.90
2023-02-14T17:27:35.258Z,122.70
2023-02-14T17:30:02.981Z,105.88
2023-02-14T17:32:31.377Z,110.90
2023-02-14T17:34:58.978Z,114.13
2023-02-14T17:37:27.108Z,112.65
2023-02-14T17:39:55.242Z,108.50
2023-02-14T17:42:23.205Z,110.15
2023-02-14T17:44:50.744Z,114.35
2023-02-14T17:47:19.886Z,107.57
2023-02-14T17:49:48.945Z,104.50
2023-02-14T17:52:17.431Z,108.47
2023-02-14T17:54:45.001Z,115.43
2023-02-14T17:57:12.778Z,113.68
2023-02-14T17:59:40.495Z,110.75
2023-02-14T18:02:09.616Z,117.65
2023-02-14T18:04:37.444Z,110.78
2023-02-14T18:07:06.397Z,109.10
2023-02-14T18:09:34.419Z,109.05
2023-02-14T18:12:04.086Z,115.60
2023-02-14T18:14:32.672Z,112.53
2023-02-14T18:17:00.703Z,113.97
2023-02-14T18:19:29.704Z,116.47
2023-02-14T18:21:57.420Z,111.95
2023-02-14T18:24:26.920Z,113.55
2023-02-14T18:26:55.676Z,119.93
2023-02-14T18:29:25.628Z,108.15
2023-02-14T18:31:53.307Z,116.10
2023-02-14T18:34:21.289Z,117.95
2023-02-14T18:36:49.365Z,111.15
2023-02-14T18:39:17.445Z,121.05
2023-02-14T18:41:46.372Z,117.68
2023-02-14T18:44:13.952Z,136.68
2023-02-14T18:46:42.349Z,122.75
2023-02-14T18:49:10.468Z,121.82
2023-02-14T18:51:39.487Z,122.18
2023-02-14T18:54:08.295Z,129.30
2023-02-14T18:56:43.229Z,127.75
2023-02-14T18:59:11.281Z,123.13
2023-02-14T19:01:42.923Z,112.40
2023-02-14T19:04:13.470Z,119.80
2023-02-14T19:06:42.276Z,141.07
2023-02-14T19:09:13.007Z,138.50
2023-02-14T19:11:41.083Z,143.73
2023-02-14T19:14:13.344Z,155.70
2023-02-14T19:16:50.293Z,155.73
2023-02-14T19:19:18.714Z,157.18
2023-02-14T19:21:47.006Z,149.23
2023-02-14T19:24:16.649Z,147.40
2023-02-14T19:26:45.130Z,125.82
2023-02-14T19:29:17.232Z,125.53
2023-02-14T19:31:48.398Z,134.95
2023-02-14T19:34:21.964Z,127.30
2023-02-14T19:36:51.450Z,129.65
2023-02-14T19:39:20.994Z,128.07
2023-02-14T19:41:49.161Z,134.93
2023-02-14T19:44:18.333Z,119.28
2023-02-14T19:46:47.806Z,122.47
2023-02-14T19:49:19.379Z,142.13
2023-02-14T19:51:49.324Z,123.40
2023-02-14T19:54:18.368Z,133.00
2023-02-14T19:56:46.959Z,107.90
2023-02-14T19:59:20.020Z,116.90
2023-02-14T20:01:50.925Z,107.07
2023-02-14T20:04:25.382Z,110.20
2023-02-14T20:06:54.306Z,112.57
2023-02-14T20:09:23.769Z,107.75
2023-02-14T20:11:54.645Z,110.65
2023-02-14T20:14:29.224Z,100.03
2023-02-14T20:16:59.513Z,107.57
2023-02-14T20:19:32.567Z,100.68
2023-02-14T20:22:09.589Z,107.07
2023-02-14T20:24:38.394Z,96.18
2023-02-14T20:27:06.599Z,102.88
2023-02-14T20:29:35.167Z,111.38
2023-02-14T20:32:04.965Z,103.28
2023-02-14T20:34:32.907Z,106.85
2023-02-14T20:37:00.530Z,97.95
2023-02-14T20:39:30.782Z,100.93
2023-02-14T20:41:59.911Z,104.32
2023-02-14T20:44:28.769Z,106.05
2023-02-14T20:46:57.166Z,104.03
2023-02-14T20:49:26.763Z,100.28
2023-02-14T20:51:56.190Z,106.68
2023-02-14T20:54:27.128Z,105.13
2023-02-14T20:56:55.154Z,103.60
2023-02-14T20:59:27.066Z,109.95
2023-02-14T21:01:56.374Z,103.93
2023-02-14T21:04:24.816Z,87.90
2023-02-14T21:06:52.923Z,94.55
2023-02-14T21:09:21.286Z,83.10
2023-02-14T21:11:50.288Z,86.13
2023-02-14T21:14:17.940Z,87.57
2023-02-14T21:16:46.445Z,84.03
2023-02-14T21:19:13.955Z,92.18
2023-02-14T21:21:41.760Z,93.90
2023-02-14T21:24:11.658Z,95.95
2023-02-14T21:26:40.289Z,87.43
2023-02-14T21:29:08.803Z,90.97
2023-02-14T21:31:38.223Z,94.95
2023-02-14T21:34:06.473Z,81.75
2023-02-14T21:36:37.120Z,80.05
2023-02-14T21:39:06.466Z,96.90
2023-02-14T21:41:36.173Z,89.88
2023-02-14T21:44:05.034Z,90.60
2023-02-14T21:46:36.864Z,89.05
2023-02-14T21:49:25.382Z,87.63
2023-02-14T21:51:53.877Z,95.22
2023-02-14T21:54:21.558Z,94.70
2023-02-14T21:56:49.953Z,98.15
2023-02-14T21:59:17.722Z,98.28
2023-02-14T22:01:45.273Z,95.53
2023-02-14T22:04:13.227Z,116.40
2023-02-14T22:06:43.077Z,109.28
2023-02-14T22:09:14.554Z,107.55
2023-02-14T22:11:42.245Z,99.32
2023-02-14T22:14:09.921Z,110.38
2023-02-14T22:16:38.612Z,105.50
2023-02-14T22:19:09.178Z,110.75
2023-02-14T22:21:36.708Z,105.32
2023-02-14T22:24:05.453Z,102.30
2023-02-14T22:26:38.782Z,125.63
2023-02-14T22:29:08.440Z,107.38
2023-02-14T22:31:39.405Z,102.45
2023-02-14T22:34:10.050Z,107.72
2023-02-14T22:36:37.883Z,99.68
2023-02-14T22:39:06.749Z,119.15
2023-02-14T22:41:37.806Z,101.53
2023-02-14T22:44:07.193Z,97.57
2023-02-14T22:46:39.390Z,105.68
2023-02-14T22:49:07.984Z,113.35
2023-02-14T22:51:41.734Z,99.88
2023-02-14T22:56:43.435Z,94.10
2023-02-14T22:59:19.451Z,118.28
2023-02-14T23:01:48.934Z,117.82
2023-02-14T23:04:19.415Z,112.60
2023-02-14T23:06:48.193Z,112.20
2023-02-14T23:09:16.549Z,139.90
2023-02-14T23:11:46.020Z,123.38
2023-02-14T23:14:34.801Z,120.40
2023-02-14T23:17:23.046Z,133.25
2023-02-14T23:20:09.271Z,109.38
2023-02-14T23:22:41.432Z,122.05
2023-02-14T23:25:11.451Z,121.95
2023-02-14T23:27:43.811Z,123.22
2023-02-14T23:30:15.407Z,119.15
2023-02-14T23:32:43.635Z,118.25
2023-02-14T23:35:11.604Z,111.88
2023-02-14T23:37:39.517Z,107.53
2023-02-14T23:40:08.485Z,114.25
2023-02-14T23:42:36.041Z,106.95
2023-02-14T23:45:23.383Z,116.97
2023-02-14T23:47:51.048Z,118.43
2023-02-14T23:50:18.878Z,119.45
2023-02-14T23:52:46.987Z,111.85
2023-02-14T23:55:15.535Z,103.28
2023-02-14T23:57:43.134Z,119.35
